createdAt,value
2018-04-30T00:01:50.858Z,71.06
2018-04-30T00:04:18.364Z,71.32
2018-04-30T00:06:45.841Z,71.75
2018-04-30T00:09:13.392Z,71.01
2018-04-30T00:11:40.881Z,70.29
2018-04-30T00:14:08.381Z,69.87
2018-04-30T00:16:35.853Z,70.14
2018-04-30T00:19:03.365Z,70.54
2018-04-30T00:21:30.841Z,69.16
2018-04-30T00:23:58.316Z,69.29
2018-04-30T00:26:25.822Z,69.06
2018-04-30T00:28:53.308Z,68.50
2018-04-30T00:31:20.808Z,66.73
2018-04-30T00:33:48.287Z,66.30
2018-04-30T00:36:16.054Z,65.79
2018-04-30T00:38:43.532Z,66.06
2018-04-30T00:41:11.016Z,65.94
2018-04-30T00:43:38.526Z,66.15
2018-04-30T00:46:06.022Z,65.76
2018-04-30T00:48:33.822Z,65.72
2018-04-30T00:51:01.301Z,65.80
2018-04-30T00:53:28.777Z,66.75
2018-04-30T00:55:56.304Z,67.29
2018-04-30T00:58:23.913Z,66.78
2018-04-30T01:00:51.425Z,67.04
2018-04-30T01:03:18.921Z,67.46
2018-04-30T01:05:46.702Z,67.18
2018-04-30T01:08:14.180Z,66.98
2018-04-30T01:10:41.652Z,66.96
2018-04-30T01:13:09.153Z,67.98
2018-04-30T01:15:36.764Z,67.92
2018-04-30T01:18:04.265Z,68.57
2018-04-30T01:20:31.737Z,67.78
2018-04-30T01:22:59.273Z,68.21
2018-04-30T01:25:26.748Z,68.87
2018-04-30T01:27:54.229Z,68.40
2018-04-30T01:30:21.729Z,68.49
2018-04-30T01:32:49.202Z,68.75
2018-04-30T01:35:16.708Z,67.66
2018-04-30T01:37:44.188Z,67.49
2018-04-30T01:40:11.685Z,66.85
2018-04-30T01:42:39.192Z,66.89
2018-04-30T01:45:06.669Z,66.84
2018-04-30T01:47:34.167Z,67.90
2018-04-30T01:50:01.686Z,66.92
2018-04-30T01:52:29.355Z,66.96
2018-04-30T01:54:56.833Z,67.29
2018-04-30T01:57:24.304Z,68.27
2018-04-30T01:59:51.805Z,67.40
2018-04-30T02:02:19.292Z,67.64
2018-04-30T02:04:46.824Z,67.50
2018-04-30T02:07:14.313Z,67.70
2018-04-30T02:09:41.838Z,67.16
2018-04-30T02:12:09.316Z,66.31
2018-04-30T02:14:36.795Z,66.73
2018-04-30T02:17:04.309Z,66.57
2018-04-30T02:19:31.795Z,66.61
2018-04-30T02:21:59.319Z,66.90
2018-04-30T02:24:26.800Z,66.83
2018-04-30T02:26:54.549Z,66.59
2018-04-30T02:29:22.036Z,66.17
2018-04-30T02:31:49.529Z,66.29
2018-04-30T02:34:17.079Z,66.53
2018-04-30T02:36:44.648Z,65.98
2018-04-30T02:39:12.161Z,65.30
2018-04-30T02:41:39.645Z,65.28
2018-04-30T02:44:07.168Z,65.78
2018-04-30T02:46:34.645Z,65.27
2018-04-30T02:49:02.176Z,64.67
2018-04-30T02:51:29.653Z,63.24
2018-04-30T02:53:57.153Z,62.94
2018-04-30T02:56:24.674Z,63.38
2018-04-30T02:58:52.154Z,64.08
2018-04-30T03:01:19.624Z,63.75
2018-04-30T03:03:47.151Z,64.34
2018-04-30T03:06:14.628Z,64.87
2018-04-30T03:08:42.125Z,65.25
2018-04-30T03:11:09.617Z,64.57
2018-04-30T03:13:37.133Z,65.46
2018-04-30T03:16:04.651Z,66.05
2018-04-30T03:18:32.144Z,66.61
2018-04-30T03:20:59.657Z,66.42
2018-04-30T03:23:27.157Z,66.50
2018-04-30T03:25:54.677Z,66.87
2018-04-30T03:28:22.159Z,67.24
2018-04-30T03:30:49.884Z,68.40
2018-04-30T03:33:17.371Z,68.55
2018-04-30T03:35:44.857Z,68.66
2018-04-30T03:38:12.353Z,68.52
2018-04-30T03:40:39.848Z,69.20
2018-04-30T03:43:07.344Z,68.94
2018-04-30T03:45:34.823Z,69.76
2018-04-30T03:48:02.299Z,70.31
2018-04-30T03:50:29.829Z,70.97
2018-04-30T03:52:57.304Z,70.72
2018-04-30T03:55:24.825Z,71.46
2018-04-30T03:57:52.300Z,71.42
2018-04-30T04:00:31.660Z,70.85
2018-04-30T04:03:10.999Z,71.11
2018-04-30T04:08:43.394Z,71.71
2018-04-30T04:11:10.900Z,71.54
2018-04-30T04:13:38.383Z,71.83
2018-04-30T04:16:05.895Z,72.82
2018-04-30T04:18:33.393Z,72.63
2018-04-30T04:21:00.869Z,73.33
2018-04-30T04:23:28.496Z,72.66
2018-04-30T04:25:55.972Z,72.20
2018-04-30T04:28:23.457Z,71.15
2018-04-30T04:30:50.956Z,71.88
2018-04-30T04:33:18.432Z,72.96
2018-04-30T04:35:45.937Z,73.63
2018-04-30T04:38:13.413Z,74.20
2018-04-30T04:40:41.092Z,73.56
2018-04-30T04:43:08.736Z,72.61
2018-04-30T04:45:36.209Z,72.66
2018-04-30T04:48:03.708Z,72.28
2018-04-30T04:50:31.181Z,72.09
2018-04-30T04:52:58.864Z,72.53
2018-04-30T04:55:26.341Z,72.42
2018-04-30T04:57:53.822Z,71.50
2018-04-30T05:00:21.339Z,73.12
2018-04-30T05:02:48.859Z,72.59
2018-04-30T05:05:16.362Z,71.54
2018-04-30T05:07:43.844Z,72.16
2018-04-30T05:10:11.469Z,71.43
2018-04-30T05:12:38.953Z,71.25
2018-04-30T05:15:06.437Z,71.90
2018-04-30T05:17:33.938Z,72.21
2018-04-30T05:20:01.436Z,71.96
2018-04-30T05:22:28.937Z,71.03
2018-04-30T05:24:56.409Z,70.86
2018-04-30T05:27:23.907Z,70.25
2018-04-30T05:29:51.380Z,70.21
2018-04-30T05:32:18.892Z,70.81
2018-04-30T05:34:46.393Z,69.69
2018-04-30T05:37:13.868Z,70.29
2018-04-30T05:39:41.397Z,70.06
2018-04-30T05:42:08.869Z,69.75
2018-04-30T05:44:36.369Z,70.05
2018-04-30T05:47:03.865Z,69.78
2018-04-30T05:49:31.788Z,69.58
2018-04-30T05:51:59.264Z,69.59
2018-04-30T05:54:26.756Z,69.35
2018-04-30T05:56:54.254Z,68.99
2018-04-30T05:59:21.738Z,69.15
2018-04-30T06:01:49.241Z,68.54
2018-04-30T06:04:16.745Z,68.42
2018-04-30T06:06:44.520Z,67.90
2018-04-30T06:09:12.034Z,67.53
2018-04-30T06:11:39.520Z,67.42
2018-04-30T06:14:07.025Z,68.63
2018-04-30T06:16:34.516Z,67.27
2018-04-30T06:19:02.020Z,67.61
2018-04-30T06:21:29.497Z,68.17
2018-04-30T06:23:57.401Z,68.70
2018-04-30T06:26:24.881Z,67.55
2018-04-30T06:28:52.368Z,67.78
2018-04-30T06:31:19.880Z,66.96
2018-04-30T06:33:47.357Z,66.22
2018-04-30T06:36:14.885Z,65.49
2018-04-30T06:38:42.365Z,64.67
2018-04-30T06:41:09.877Z,63.80
2018-04-30T06:43:37.549Z,65.04
2018-04-30T06:46:05.025Z,65.23
2018-04-30T06:48:32.524Z,64.58
2018-04-30T06:50:59.996Z,64.34
2018-04-30T06:53:27.741Z,64.71
2018-04-30T06:55:55.228Z,64.76
2018-04-30T06:58:22.701Z,65.32
2018-04-30T07:00:50.204Z,65.16
2018-04-30T07:03:17.691Z,64.77
2018-04-30T07:05:45.209Z,65.23
2018-04-30T07:08:12.695Z,66.47
2018-04-30T07:10:40.533Z,65.67
2018-04-30T07:13:08.033Z,66.35
2018-04-30T07:15:35.584Z,65.89
2018-04-30T07:18:03.041Z,65.48
2018-04-30T07:20:30.537Z,65.04
2018-04-30T07:22:58.045Z,64.47
2018-04-30T07:25:25.549Z,63.50
2018-04-30T07:27:53.161Z,63.91
2018-04-30T07:30:20.589Z,63.78
2018-04-30T07:32:48.097Z,62.39
2018-04-30T07:35:15.604Z,62.05
2018-04-30T07:37:43.080Z,62.71
2018-04-30T07:40:10.605Z,61.93
2018-04-30T07:42:38.089Z,61.57
2018-04-30T07:45:05.583Z,61.75
2018-04-30T07:47:33.120Z,61.55
2018-04-30T07:50:00.594Z,60.52
2018-04-30T07:52:28.102Z,61.86
2018-04-30T07:54:55.610Z,61.75
2018-04-30T07:57:23.398Z,61.64
2018-04-30T07:59:50.901Z,60.65
2018-04-30T08:02:18.377Z,60.25
2018-04-30T08:04:45.904Z,60.70
2018-04-30T08:07:13.448Z,60.22
2018-04-30T08:09:40.949Z,59.79
2018-04-30T08:12:08.433Z,60.33
2018-04-30T08:14:35.961Z,59.75
2018-04-30T08:17:03.436Z,59.29
2018-04-30T08:19:30.938Z,58.82
2018-04-30T08:21:58.445Z,58.48
2018-04-30T08:24:25.917Z,57.33
2018-04-30T08:26:53.462Z,56.68
2018-04-30T08:29:20.925Z,56.23
2018-04-30T08:31:48.644Z,56.34
2018-04-30T08:34:16.166Z,56.00
2018-04-30T08:36:43.713Z,55.35
2018-04-30T08:39:11.180Z,55.62
2018-04-30T08:41:38.657Z,56.79
2018-04-30T08:44:06.164Z,56.66
2018-04-30T08:46:33.637Z,57.58
2018-04-30T08:49:01.200Z,58.50
2018-04-30T08:51:28.688Z,57.16
2018-04-30T08:53:56.165Z,57.14
2018-04-30T08:56:23.677Z,57.58
2018-04-30T08:58:51.149Z,57.00
2018-04-30T09:01:18.664Z,56.56
2018-04-30T09:03:46.146Z,56.29
2018-04-30T09:06:13.865Z,54.62
2018-04-30T09:08:41.345Z,53.81
2018-04-30T09:11:08.827Z,53.86
2018-04-30T09:13:36.325Z,55.05
2018-04-30T09:16:03.809Z,55.31
2018-04-30T09:18:31.328Z,55.12
2018-04-30T09:20:58.805Z,54.62
2018-04-30T09:23:26.454Z,54.69
2018-04-30T09:25:53.961Z,54.62
2018-04-30T09:28:21.433Z,54.12
2018-04-30T09:30:48.936Z,54.77
2018-04-30T09:33:16.432Z,53.96
2018-04-30T09:35:44.237Z,53.86
2018-04-30T09:38:11.732Z,53.49
2018-04-30T09:40:39.211Z,53.51
2018-04-30T09:43:06.725Z,51.97
2018-04-30T09:45:34.202Z,51.98
2018-04-30T09:48:01.701Z,52.09
2018-04-30T09:50:29.180Z,52.48
2018-04-30T09:52:56.653Z,52.45
2018-04-30T09:55:24.149Z,52.57
2018-04-30T09:57:51.717Z,52.85
2018-04-30T10:00:19.149Z,51.80
2018-04-30T10:02:46.881Z,51.68
2018-04-30T10:05:14.577Z,52.43
2018-04-30T10:07:42.048Z,52.29
2018-04-30T10:10:09.524Z,52.28
2018-04-30T10:12:37.029Z,51.92
2018-04-30T10:15:05.149Z,51.49
2018-04-30T10:17:32.843Z,50.82
2018-04-30T10:20:00.321Z,50.55
2018-04-30T10:22:27.802Z,47.99
2018-04-30T10:24:55.304Z,48.53
2018-04-30T10:27:22.781Z,47.68
2018-04-30T10:29:50.285Z,47.71
2018-04-30T10:32:17.757Z,48.13
2018-04-30T10:34:45.489Z,48.15
2018-04-30T10:37:12.961Z,49.07
2018-04-30T10:39:40.441Z,49.46
2018-04-30T10:42:07.941Z,49.70
2018-04-30T10:44:35.605Z,48.35
2018-04-30T10:47:03.296Z,48.44
2018-04-30T10:49:30.773Z,48.27
2018-04-30T10:51:58.251Z,48.79
2018-04-30T10:54:25.755Z,48.26
2018-04-30T10:56:53.249Z,48.13
2018-04-30T10:59:20.953Z,47.57
2018-04-30T11:01:48.432Z,46.05
2018-04-30T11:04:15.936Z,45.92
2018-04-30T11:06:43.440Z,45.49
2018-04-30T11:09:10.928Z,45.81
2018-04-30T11:11:38.433Z,45.56
2018-04-30T11:14:05.930Z,46.13
2018-04-30T11:16:33.549Z,45.69
2018-04-30T11:19:01.028Z,45.05
2018-04-30T11:21:28.507Z,45.18
2018-04-30T11:23:56.017Z,44.86
2018-04-30T11:26:23.493Z,45.34
2018-04-30T11:28:50.989Z,45.10
2018-04-30T11:31:18.465Z,43.44
2018-04-30T11:33:46.153Z,43.59
2018-04-30T11:36:13.726Z,44.10
2018-04-30T11:38:41.212Z,44.00
2018-04-30T11:41:08.728Z,44.16
2018-04-30T11:43:36.229Z,44.70
2018-04-30T11:46:04.005Z,44.81
2018-04-30T11:48:31.517Z,44.66
2018-04-30T11:50:59.015Z,43.62
2018-04-30T11:53:26.544Z,44.21
2018-04-30T11:55:54.053Z,45.09
2018-04-30T11:58:21.572Z,48.20
2018-04-30T12:00:49.061Z,48.00
2018-04-30T12:03:16.716Z,47.97
2018-04-30T12:05:44.213Z,48.83
2018-04-30T12:08:11.701Z,48.04
2018-04-30T12:10:39.212Z,47.04
2018-04-30T12:13:06.715Z,45.76
2018-04-30T12:15:34.332Z,45.31
2018-04-30T12:18:01.831Z,44.38
2018-04-30T12:20:29.537Z,44.48
2018-04-30T12:22:57.041Z,43.54
2018-04-30T12:25:24.540Z,42.72
2018-04-30T12:27:52.092Z,43.06
2018-04-30T12:30:19.596Z,43.24
2018-04-30T12:32:47.144Z,43.10
2018-04-30T12:35:14.640Z,43.28
2018-04-30T12:37:42.247Z,41.65
2018-04-30T12:40:09.765Z,41.42
2018-04-30T12:42:37.276Z,40.33
2018-04-30T12:45:04.790Z,40.83
2018-04-30T12:47:32.313Z,40.33
2018-04-30T12:49:59.977Z,40.59
2018-04-30T12:52:27.484Z,40.65
2018-04-30T12:54:54.965Z,41.84
2018-04-30T12:57:22.477Z,42.18
2018-04-30T12:59:49.988Z,41.92
2018-04-30T13:02:17.718Z,42.98
2018-04-30T13:04:45.245Z,43.00
2018-04-30T13:07:12.732Z,42.81
2018-04-30T13:09:40.240Z,42.14
2018-04-30T13:12:07.721Z,42.55
2018-04-30T13:14:35.237Z,43.01
2018-04-30T13:17:02.735Z,42.96
2018-04-30T13:19:30.423Z,43.39
2018-04-30T13:21:57.904Z,41.99
2018-04-30T13:24:25.392Z,42.60
2018-04-30T13:26:52.890Z,42.74
2018-04-30T13:29:20.392Z,42.15
2018-04-30T13:31:48.101Z,42.67
2018-04-30T13:34:15.572Z,42.92
2018-04-30T13:36:43.072Z,44.22
2018-04-30T13:39:10.573Z,50.98
2018-04-30T13:41:38.049Z,58.48
2018-04-30T13:44:05.585Z,60.93
2018-04-30T13:46:33.057Z,60.37
2018-04-30T13:49:00.877Z,60.42
2018-04-30T13:51:28.357Z,57.48
2018-04-30T13:53:55.833Z,51.54
2018-04-30T13:56:23.364Z,49.34
2018-04-30T13:58:51.096Z,48.40
2018-04-30T14:01:18.613Z,47.27
2018-04-30T14:03:46.097Z,47.27
2018-04-30T14:06:13.897Z,46.95
2018-04-30T14:08:41.369Z,47.00
2018-04-30T14:11:08.846Z,45.91
2018-04-30T14:13:36.349Z,44.21
2018-04-30T14:16:03.840Z,44.70
2018-04-30T14:18:31.389Z,45.31
2018-04-30T14:20:58.876Z,43.07
2018-04-30T14:23:26.574Z,44.30
2018-04-30T14:25:54.053Z,44.44
2018-04-30T14:28:21.606Z,43.52
2018-04-30T14:30:49.105Z,43.91
2018-04-30T14:33:16.589Z,43.41
2018-04-30T14:35:44.085Z,42.84
2018-04-30T14:38:11.561Z,42.19
2018-04-30T14:40:39.077Z,41.63
2018-04-30T14:43:06.581Z,40.10
2018-04-30T14:45:34.094Z,39.52
2018-04-30T14:48:01.569Z,40.67
2018-04-30T14:50:29.056Z,41.26
2018-04-30T14:52:56.560Z,38.38
2018-04-30T14:55:24.043Z,38.59
2018-04-30T14:57:51.548Z,38.35
2018-04-30T15:00:19.028Z,38.20
2018-04-30T15:02:47.009Z,39.24
2018-04-30T15:05:14.487Z,38.60
2018-04-30T15:07:41.966Z,38.83
2018-04-30T15:10:09.468Z,37.46
2018-04-30T15:12:36.949Z,37.95
2018-04-30T15:15:04.449Z,37.82
2018-04-30T15:17:31.934Z,37.71
2018-04-30T15:19:59.828Z,37.38
2018-04-30T15:22:27.306Z,37.65
2018-04-30T15:24:54.792Z,38.06
2018-04-30T15:27:22.305Z,37.83
2018-04-30T15:29:49.784Z,37.59
2018-04-30T15:32:17.480Z,38.29
2018-04-30T15:34:44.976Z,38.27
2018-04-30T15:37:12.453Z,38.77
2018-04-30T15:39:39.949Z,38.70
2018-04-30T15:42:07.477Z,38.95
2018-04-30T15:44:35.325Z,38.62
2018-04-30T15:47:02.805Z,38.88
2018-04-30T15:49:30.279Z,38.69
2018-04-30T15:51:57.781Z,39.08
2018-04-30T15:54:25.286Z,39.91
2018-04-30T15:56:52.781Z,42.70
2018-04-30T15:59:20.259Z,44.31
2018-04-30T16:01:47.765Z,43.77
2018-04-30T16:04:15.237Z,44.25
2018-04-30T16:06:42.838Z,44.89
2018-04-30T16:09:10.281Z,46.26
2018-04-30T16:11:37.758Z,46.74
2018-04-30T16:14:05.373Z,47.86
2018-04-30T16:16:32.801Z,49.65
2018-04-30T16:19:00.521Z,49.72
2018-04-30T16:21:28.025Z,50.40
2018-04-30T16:23:55.504Z,51.19
2018-04-30T16:26:23.012Z,51.11
2018-04-30T16:28:50.526Z,50.76
2018-04-30T16:31:18.031Z,50.27
2018-04-30T16:33:45.541Z,49.56
2018-04-30T16:36:13.029Z,50.44
2018-04-30T16:38:40.529Z,51.14
2018-04-30T16:41:08.019Z,51.97
2018-04-30T16:43:35.517Z,51.03
2018-04-30T16:46:03.070Z,51.72
2018-04-30T16:48:30.594Z,55.33
2018-04-30T16:50:58.069Z,53.50
2018-04-30T16:53:25.549Z,53.11
2018-04-30T16:55:53.059Z,54.30
2018-04-30T16:58:20.550Z,54.28
2018-04-30T17:00:48.062Z,53.52
2018-04-30T17:03:15.541Z,53.45
2018-04-30T17:05:43.268Z,53.00
2018-04-30T17:08:10.750Z,53.25
2018-04-30T17:10:38.255Z,53.06
2018-04-30T17:13:05.776Z,54.59
2018-04-30T17:15:33.274Z,54.37
2018-04-30T17:18:01.025Z,54.41
2018-04-30T17:20:28.496Z,54.79
2018-04-30T17:22:56.013Z,55.04
2018-04-30T17:25:23.508Z,55.89
2018-04-30T17:27:50.996Z,56.08
2018-04-30T17:30:18.544Z,55.46
2018-04-30T17:32:46.030Z,56.82
2018-04-30T17:35:13.673Z,57.49
2018-04-30T17:37:41.169Z,57.03
2018-04-30T17:40:08.645Z,58.65
2018-04-30T17:42:36.160Z,58.11
2018-04-30T17:45:03.636Z,58.23
2018-04-30T17:47:31.203Z,59.32
2018-04-30T17:49:58.684Z,59.86
2018-04-30T17:52:26.457Z,60.29
2018-04-30T17:54:53.949Z,60.16
2018-04-30T17:57:21.548Z,60.53
2018-04-30T17:59:49.054Z,60.53
2018-04-30T18:02:16.533Z,61.32
2018-04-30T18:04:44.065Z,61.73
2018-04-30T18:07:11.560Z,61.52
2018-04-30T18:09:39.042Z,61.48
2018-04-30T18:12:06.542Z,61.96
2018-04-30T18:14:34.015Z,62.95
2018-04-30T18:17:01.525Z,62.73
2018-04-30T18:19:29.006Z,63.08
2018-04-30T18:21:56.676Z,64.21
2018-04-30T18:24:24.158Z,64.17
2018-04-30T18:26:51.702Z,63.86
2018-04-30T18:29:19.192Z,63.23
2018-04-30T18:31:46.669Z,63.44
2018-04-30T18:34:14.238Z,63.44
2018-04-30T18:36:41.718Z,62.85
2018-04-30T18:39:09.376Z,63.25
2018-04-30T18:41:36.866Z,63.73
2018-04-30T18:44:04.357Z,62.97
2018-04-30T18:46:31.861Z,63.03
2018-04-30T18:48:59.360Z,63.22
2018-04-30T18:51:27.063Z,64.74
2018-04-30T18:53:54.561Z,64.83
2018-04-30T18:56:22.058Z,65.07
2018-04-30T18:58:49.602Z,64.23
2018-04-30T19:01:17.349Z,64.84
2018-04-30T19:03:45.214Z,64.25
2018-04-30T19:06:13.227Z,64.02
2018-04-30T19:08:41.614Z,64.32
2018-04-30T19:11:09.485Z,63.78
2018-04-30T19:13:37.178Z,63.69
2018-04-30T19:16:05.153Z,64.51
2018-04-30T19:18:32.902Z,64.28
2018-04-30T19:21:00.807Z,65.07
2018-04-30T19:23:28.373Z,64.95
2018-04-30T19:25:56.248Z,64.54
2018-04-30T19:28:24.003Z,63.63
2018-04-30T19:30:52.016Z,64.00
2018-04-30T19:33:25.833Z,63.28
2018-04-30T19:35:53.765Z,64.07
2018-04-30T19:38:21.790Z,65.05
2018-04-30T19:40:49.571Z,64.48
2018-04-30T19:43:17.732Z,64.67
2018-04-30T19:45:45.727Z,64.77
2018-04-30T19:48:13.620Z,64.67
2018-04-30T19:50:41.154Z,64.33
2018-04-30T19:53:08.697Z,65.48
2018-04-30T19:55:36.215Z,65.43
2018-04-30T19:58:03.728Z,63.84
2018-04-30T20:00:31.231Z,62.90
2018-04-30T20:02:58.921Z,63.30
2018-04-30T20:05:26.449Z,62.38
2018-04-30T20:07:53.983Z,61.98
2018-04-30T20:10:21.769Z,60.77
2018-04-30T20:12:49.627Z,61.16
2018-04-30T20:15:17.110Z,61.50
2018-04-30T20:17:44.595Z,61.92
2018-04-30T20:20:12.137Z,61.94
2018-04-30T20:22:39.678Z,61.40
2018-04-30T20:25:07.210Z,61.44
2018-04-30T20:27:34.719Z,61.39
2018-04-30T20:30:02.234Z,60.59
2018-04-30T20:32:29.745Z,60.41
2018-04-30T20:34:57.464Z,60.66
2018-04-30T20:37:24.949Z,60.53
2018-04-30T20:39:52.429Z,60.96
2018-04-30T20:42:19.941Z,61.67
2018-04-30T20:44:47.429Z,61.95
2018-04-30T20:47:14.958Z,61.65
2018-04-30T20:49:42.455Z,60.86
2018-04-30T20:52:09.949Z,61.17
2018-04-30T20:54:37.483Z,60.25
2018-04-30T20:57:05.002Z,60.91
2018-04-30T20:59:32.591Z,61.08
2018-04-30T21:02:00.081Z,60.16
2018-04-30T21:04:27.925Z,60.96
2018-04-30T21:06:55.414Z,60.75
2018-04-30T21:09:22.903Z,60.67
2018-04-30T21:11:50.441Z,60.21
2018-04-30T21:14:17.917Z,60.53
2018-04-30T21:16:45.416Z,61.63
2018-04-30T21:19:12.889Z,60.90
2018-04-30T21:21:40.397Z,60.24
2018-04-30T21:24:07.890Z,60.75
2018-04-30T21:26:35.393Z,60.42
2018-04-30T21:29:02.894Z,60.66
2018-04-30T21:31:30.390Z,60.70
2018-04-30T21:33:57.916Z,60.37
2018-04-30T21:36:25.717Z,60.18
2018-04-30T21:38:53.193Z,60.22
2018-04-30T21:41:20.699Z,59.44
2018-04-30T21:43:48.186Z,58.89
2018-04-30T21:46:15.687Z,60.32
2018-04-30T21:48:43.161Z,60.69
2018-04-30T21:51:11.068Z,60.02
2018-04-30T21:53:38.547Z,59.88
2018-04-30T21:56:06.029Z,59.68
2018-04-30T21:58:33.559Z,60.04
2018-04-30T22:01:01.030Z,59.95
2018-04-30T22:03:28.527Z,59.67
2018-04-30T22:05:56.001Z,59.54
2018-04-30T22:08:23.609Z,59.74
2018-04-30T22:10:51.080Z,60.73
2018-04-30T22:13:18.631Z,61.34
2018-04-30T22:15:46.212Z,61.27
2018-04-30T22:18:13.729Z,61.47
2018-04-30T22:20:41.249Z,61.08
2018-04-30T22:23:08.741Z,61.80
2018-04-30T22:25:36.228Z,61.97
2018-04-30T22:28:03.738Z,62.13
2018-04-30T22:30:31.226Z,60.97
2018-04-30T22:32:58.733Z,61.56
2018-04-30T22:35:26.221Z,60.03
2018-04-30T22:37:53.913Z,59.43
2018-04-30T22:40:21.411Z,58.69
2018-04-30T22:42:48.885Z,58.12
2018-04-30T22:45:16.454Z,57.65
2018-04-30T22:47:43.893Z,57.88
2018-04-30T22:50:11.394Z,58.76
2018-04-30T22:52:38.868Z,58.24
2018-04-30T22:55:06.379Z,58.00
2018-04-30T22:57:33.863Z,57.83
2018-04-30T23:00:01.345Z,58.49
2018-04-30T23:02:28.885Z,59.10
2018-04-30T23:04:56.356Z,59.81
2018-04-30T23:07:23.885Z,59.25
2018-04-30T23:09:51.357Z,60.64
2018-04-30T23:12:18.833Z,59.88
2018-04-30T23:14:46.336Z,59.79
2018-04-30T23:17:13.870Z,59.44
2018-04-30T23:19:41.374Z,60.66
2018-04-30T23:22:08.850Z,60.34
2018-04-30T23:24:36.372Z,61.28
2018-04-30T23:27:03.846Z,61.84
2018-04-30T23:29:31.322Z,61.69
2018-04-30T23:31:58.828Z,61.59
2018-04-30T23:34:26.297Z,61.93
2018-04-30T23:36:53.842Z,62.58
2018-04-30T23:39:21.304Z,61.48
2018-04-30T23:41:49.056Z,61.26
2018-04-30T23:44:16.536Z,61.07
2018-04-30T23:46:44.123Z,60.33
2018-04-30T23:49:11.620Z,60.79
2018-04-30T23:51:39.096Z,59.83
2018-04-30T23:54:06.589Z,60.36
2018-04-30T23:56:34.061Z,60.97
2018-04-30T23:59:01.529Z,62.36
